sensor_id;sensor_type;location;lat;lon;timestamp;temperature;humidity
3566;DHT22;1797;51.844;7.684;2023-04-01T00:01:00;9.60;99.90
3566;DHT22;1797;51.844;7.684;2023-04-01T00:03:27;9.60;99.90
3566;DHT22;1797;51.844;7.684;2023-04-01T00:05:54;9.60;99.90
3566;DHT22;1797;51.844;7.684;2023-04-01T00:08:20;9.60;99.90
3566;DHT22;1797;51.844;7.684;2023-04-01T00:10:46;9.50;99.90
3566;DHT22;1797;51.844;7.684;2023-04-01T00:13:12;9.50;99.90
3566;DHT22;1797;51.844;7.684;2023-04-01T00:15:38;9.50;99.90
3566;DHT22;1797;51.844;7.684;2023-04-01T00:18:03;9.40;99.90
3566;DHT22;1797;51.844;7.684;2023-04-01T00:20:31;9.50;99.90
3566;DHT22;1797;51.844;7.684;2023-04-01T00:22:56;9.50;99.90
3566;DHT22;1797;51.844;7.684;2023-04-01T00:25:23;9.50;99.90
3566;DHT22;1797;51.844;7.684;2023-04-01T00:27:48;9.40;99.90
3566;DHT22;1797;51.844;7.684;2023-04-01T00:30:15;9.50;99.90
3566;DHT22;1797;51.844;7.684;2023-04-01T00:32:41;9.50;99.90
3566;DHT22;1797;51.844;7.684;2023-04-01T00:35:07;9.50;99.90
3566;DHT22;1797;51.844;7.684;2023-04-01T00:37:35;9.40;99.90
3566;DHT22;1797;51.844;7.684;2023-04-01T00:40:04;9.40;99.90
3566;DHT22;1797;51.844;7.684;2023-04-01T00:42:30;9.40;99.90
3566;DHT22;1797;51.844;7.684;2023-04-01T00:44:56;9.40;99.90
3566;DHT22;1797;51.844;7.684;2023-04-01T00:47:23;9.40;99.90
3566;DHT22;1797;51.844;7.684;2023-04-01T00:49:52;9.40;99.90
3566;DHT22;1797;51.844;7.684;2023-04-01T00:52:22;9.40;99.90
3566;DHT22;1797;51.844;7.684;2023-04-01T00:54:52;9.50;99.90
3566;DHT22;1797;51.844;7.684;2023-04-01T00:57:29;9.40;99.90
3566;DHT22;1797;51.844;7.684;2023-04-01T00:59:56;9.40;99.90
3566;DHT22;1797;51.844;7.684;2023-04-01T01:02:22;9.40;99.90
3566;DHT22;1797;51.844;7.684;2023-04-01T01:04:47;9.30;99.90
3566;DHT22;1797;51.844;7.684;2023-04-01T01:12:43;9.40;99.90
3566;DHT22;1797;51.844;7.684;2023-04-01T01:15:26;9.40;99.90
3566;DHT22;1797;51.844;7.684;2023-04-01T01:18:13;9.40;99.90
3566;DHT22;1797;51.844;7.684;2023-04-01T01:29:33;9.40;99.90
3566;DHT22;1797;51.844;7.684;2023-04-01T01:32:44;9.40;99.90
3566;DHT22;1797;51.844;7.684;2023-04-01T01:35:37;9.30;99.90
3566;DHT22;1797;51.844;7.684;2023-04-01T01:38:08;9.30;99.90
3566;DHT22;1797;51.844;7.684;2023-04-01T01:40:36;9.30;99.90
3566;DHT22;1797;51.844;7.684;2023-04-01T01:43:07;9.20;99.90
3566;DHT22;1797;51.844;7.684;2023-04-01T01:45:35;9.30;99.90
3566;DHT22;1797;51.844;7.684;2023-04-01T01:48:04;9.30;99.90
3566;DHT22;1797;51.844;7.684;2023-04-01T01:50:32;9.30;99.90
3566;DHT22;1797;51.844;7.684;2023-04-01T01:53:07;9.30;99.90
3566;DHT22;1797;51.844;7.684;2023-04-01T01:55:38;9.30;99.90
3566;DHT22;1797;51.844;7.684;2023-04-01T01:58:16;9.30;99.90
3566;DHT22;1797;51.844;7.684;2023-04-01T02:00:46;9.30;99.90
3566;DHT22;1797;51.844;7.684;2023-04-01T02:03:15;9.30;99.90
3566;DHT22;1797;51.844;7.684;2023-04-01T02:05:42;9.30;99.90
3566;DHT22;1797;51.844;7.684;2023-04-01T02:08:09;9.30;99.90
3566;DHT22;1797;51.844;7.684;2023-04-01T02:10:40;9.30;99.90
3566;DHT22;1797;51.844;7.684;2023-04-01T02:13:18;9.20;99.90
3566;DHT22;1797;51.844;7.684;2023-04-01T02:15:47;9.30;99.90
3566;DHT22;1797;51.844;7.684;2023-04-01T02:18:15;9.30;99.90
3566;DHT22;1797;51.844;7.684;2023-04-01T02:20:41;9.30;99.90
3566;DHT22;1797;51.844;7.684;2023-04-01T02:23:09;9.20;99.90
3566;DHT22;1797;51.844;7.684;2023-04-01T02:25:36;9.30;99.90
3566;DHT22;1797;51.844;7.684;2023-04-01T02:28:05;9.30;99.90
3566;DHT22;1797;51.844;7.684;2023-04-01T02:30:34;9.30;99.90
3566;DHT22;1797;51.844;7.684;2023-04-01T02:33:01;9.20;99.90
3566;DHT22;1797;51.844;7.684;2023-04-01T02:35:28;9.30;99.90
3566;DHT22;1797;51.844;7.684;2023-04-01T02:37:54;9.50;99.90
3566;DHT22;1797;51.844;7.684;2023-04-01T02:40:21;9.30;99.90
3566;DHT22;1797;51.844;7.684;2023-04-01T02:42:47;9.20;99.90
3566;DHT22;1797;51.844;7.684;2023-04-01T02:45:13;9.20;99.90
3566;DHT22;1797;51.844;7.684;2023-04-01T02:47:40;9.30;99.90
3566;DHT22;1797;51.844;7.684;2023-04-01T02:50:06;9.30;99.90
3566;DHT22;1797;51.844;7.684;2023-04-01T02:52:32;9.30;99.90
3566;DHT22;1797;51.844;7.684;2023-04-01T02:54:58;9.20;99.90
3566;DHT22;1797;51.844;7.684;2023-04-01T02:57:24;9.20;99.90
3566;DHT22;1797;51.844;7.684;2023-04-01T02:59:50;9.30;99.90
3566;DHT22;1797;51.844;7.684;2023-04-01T03:02:16;9.30;99.90
3566;DHT22;1797;51.844;7.684;2023-04-01T03:04:42;9.30;99.90
3566;DHT22;1797;51.844;7.684;2023-04-01T03:07:08;9.20;99.90
3566;DHT22;1797;51.844;7.684;2023-04-01T03:09:36;9.20;99.90
3566;DHT22;1797;51.844;7.684;2023-04-01T03:12:02;9.10;99.90
3566;DHT22;1797;51.844;7.684;2023-04-01T03:14:28;9.20;99.90
3566;DHT22;1797;51.844;7.684;2023-04-01T03:16:53;9.10;99.90
3566;DHT22;1797;51.844;7.684;2023-04-01T03:19:20;9.20;99.90
3566;DHT22;1797;51.844;7.684;2023-04-01T03:21:45;9.20;99.90
3566;DHT22;1797;51.844;7.684;2023-04-01T03:24:11;9.10;99.90
3566;DHT22;1797;51.844;7.684;2023-04-01T03:26:37;9.10;99.90
3566;DHT22;1797;51.844;7.684;2023-04-01T03:29:02;9.10;99.90
3566;DHT22;1797;51.844;7.684;2023-04-01T03:31:28;9.10;99.90
3566;DHT22;1797;51.844;7.684;2023-04-01T03:33:53;9.10;99.90
3566;DHT22;1797;51.844;7.684;2023-04-01T03:36:19;9.10;99.90
3566;DHT22;1797;51.844;7.684;2023-04-01T03:38:45;9.00;99.90
3566;DHT22;1797;51.844;7.684;2023-04-01T03:41:15;9.10;99.90
3566;DHT22;1797;51.844;7.684;2023-04-01T03:43:41;9.00;99.90
3566;DHT22;1797;51.844;7.684;2023-04-01T03:46:06;9.00;99.90
3566;DHT22;1797;51.844;7.684;2023-04-01T03:48:32;9.30;99.90
3566;DHT22;1797;51.844;7.684;2023-04-01T03:50:58;9.10;99.90
3566;DHT22;1797;51.844;7.684;2023-04-01T03:53:23;9.10;99.90
3566;DHT22;1797;51.844;7.684;2023-04-01T03:55:49;9.20;99.90
3566;DHT22;1797;51.844;7.684;2023-04-01T03:58:17;9.10;99.90
3566;DHT22;1797;51.844;7.684;2023-04-01T04:00:42;9.10;99.90
3566;DHT22;1797;51.844;7.684;2023-04-01T04:03:08;9.10;99.90
3566;DHT22;1797;51.844;7.684;2023-04-01T04:05:34;9.10;99.90
3566;DHT22;1797;51.844;7.684;2023-04-01T04:08:00;9.10;99.90
3566;DHT22;1797;51.844;7.684;2023-04-01T04:10:26;9.10;99.90
3566;DHT22;1797;51.844;7.684;2023-04-01T04:12:52;9.10;99.90
3566;DHT22;1797;51.844;7.684;2023-04-01T04:15:18;9.10;99.90
3566;DHT22;1797;51.844;7.684;2023-04-01T04:17:47;9.10;99.90
3566;DHT22;1797;51.844;7.684;2023-04-01T04:20:13;9.20;99.90
3566;DHT22;1797;51.844;7.684;2023-04-01T04:22:39;8.90;99.90
3566;DHT22;1797;51.844;7.684;2023-04-01T04:25:05;9.10;99.90
3566;DHT22;1797;51.844;7.684;2023-04-01T04:27:31;9.10;99.90
3566;DHT22;1797;51.844;7.684;2023-04-01T04:29:57;9.10;99.90
3566;DHT22;1797;51.844;7.684;2023-04-01T04:32:22;9.30;99.90
3566;DHT22;1797;51.844;7.684;2023-04-01T04:34:48;9.10;99.90
3566;DHT22;1797;51.844;7.684;2023-04-01T04:37:14;9.10;99.90
3566;DHT22;1797;51.844;7.684;2023-04-01T04:39:39;9.10;99.90
3566;DHT22;1797;51.844;7.684;2023-04-01T04:42:05;9.10;99.90
3566;DHT22;1797;51.844;7.684;2023-04-01T04:44:31;9.10;99.90
3566;DHT22;1797;51.844;7.684;2023-04-01T04:46:57;9.00;99.90
3566;DHT22;1797;51.844;7.684;2023-04-01T04:49:22;9.10;99.90
3566;DHT22;1797;51.844;7.684;2023-04-01T04:51:48;8.90;99.90
3566;DHT22;1797;51.844;7.684;2023-04-01T04:54:14;9.00;99.90
3566;DHT22;1797;51.844;7.684;2023-04-01T04:56:39;9.00;99.90
3566;DHT22;1797;51.844;7.684;2023-04-01T04:59:05;9.00;99.90
3566;DHT22;1797;51.844;7.684;2023-04-01T05:01:31;9.00;99.90
3566;DHT22;1797;51.844;7.684;2023-04-01T05:03:59;9.00;99.90
3566;DHT22;1797;51.844;7.684;2023-04-01T05:06:25;9.40;99.90
3566;DHT22;1797;51.844;7.684;2023-04-01T05:08:55;8.80;99.90
3566;DHT22;1797;51.844;7.684;2023-04-01T05:11:21;9.40;99.90
3566;DHT22;1797;51.844;7.684;2023-04-01T05:13:47;9.00;99.90
3566;DHT22;1797;51.844;7.684;2023-04-01T05:16:18;9.00;99.90
3566;DHT22;1797;51.844;7.684;2023-04-01T05:18:44;9.10;99.90
3566;DHT22;1797;51.844;7.684;2023-04-01T05:21:11;9.10;99.90
3566;DHT22;1797;51.844;7.684;2023-04-01T05:23:37;9.00;99.90
3566;DHT22;1797;51.844;7.684;2023-04-01T05:26:05;9.00;99.90
3566;DHT22;1797;51.844;7.684;2023-04-01T05:28:30;9.10;99.90
3566;DHT22;1797;51.844;7.684;2023-04-01T05:30:59;9.00;99.90
3566;DHT22;1797;51.844;7.684;2023-04-01T05:33:26;9.10;99.90
3566;DHT22;1797;51.844;7.684;2023-04-01T05:35:52;9.20;99.90
3566;DHT22;1797;51.844;7.684;2023-04-01T05:38:18;9.10;99.90
3566;DHT22;1797;51.844;7.684;2023-04-01T05:40:44;9.10;99.90
3566;DHT22;1797;51.844;7.684;2023-04-01T05:43:10;9.30;99.90
3566;DHT22;1797;51.844;7.684;2023-04-01T05:45:35;9.00;99.90
3566;DHT22;1797;51.844;7.684;2023-04-01T05:48:02;9.20;99.90
3566;DHT22;1797;51.844;7.684;2023-04-01T05:50:27;9.20;99.90
3566;DHT22;1797;51.844;7.684;2023-04-01T05:52:53;9.10;99.90
3566;DHT22;1797;51.844;7.684;2023-04-01T05:55:19;9.20;99.90
3566;DHT22;1797;51.844;7.684;2023-04-01T05:57:45;9.10;99.90
3566;DHT22;1797;51.844;7.684;2023-04-01T06:00:12;9.20;99.90
3566;DHT22;1797;51.844;7.684;2023-04-01T06:02:38;9.20;99.90
3566;DHT22;1797;51.844;7.684;2023-04-01T06:05:15;9.30;99.90
3566;DHT22;1797;51.844;7.684;2023-04-01T06:07:41;9.20;99.90
3566;DHT22;1797;51.844;7.684;2023-04-01T06:10:18;9.20;99.90
3566;DHT22;1797;51.844;7.684;2023-04-01T06:15:32;9.20;99.90
3566;DHT22;1797;51.844;7.684;2023-04-01T06:21:17;9.30;99.90
3566;DHT22;1797;51.844;7.684;2023-04-01T06:24:15;9.30;99.90
3566;DHT22;1797;51.844;7.684;2023-04-01T06:32:49;9.40;99.90
3566;DHT22;1797;51.844;7.684;2023-04-01T06:38:25;9.40;99.90
3566;DHT22;1797;51.844;7.684;2023-04-01T06:46:19;9.50;99.90
3566;DHT22;1797;51.844;7.684;2023-04-01T06:51:54;9.60;99.90
3566;DHT22;1797;51.844;7.684;2023-04-01T06:54:30;9.60;99.90
3566;DHT22;1797;51.844;7.684;2023-04-01T06:59:44;9.70;99.90
3566;DHT22;1797;51.844;7.684;2023-04-01T07:04:40;9.80;99.90
3566;DHT22;1797;51.844;7.684;2023-04-01T07:07:27;9.90;99.90
3566;DHT22;1797;51.844;7.684;2023-04-01T07:09:56;9.90;99.90
3566;DHT22;1797;51.844;7.684;2023-04-01T07:15:04;9.90;99.90
3566;DHT22;1797;51.844;7.684;2023-04-01T07:17:36;9.90;99.90
3566;DHT22;1797;51.844;7.684;2023-04-01T07:20:16;9.90;99.90
3566;DHT22;1797;51.844;7.684;2023-04-01T07:22:45;9.90;99.90
3566;DHT22;1797;51.844;7.684;2023-04-01T07:25:35;10.00;99.90
3566;DHT22;1797;51.844;7.684;2023-04-01T07:28:13;10.00;99.90
3566;DHT22;1797;51.844;7.684;2023-04-01T07:34:25;10.00;99.90
3566;DHT22;1797;51.844;7.684;2023-04-01T07:37:10;10.00;99.90
3566;DHT22;1797;51.844;7.684;2023-04-01T07:42:39;10.00;99.90
3566;DHT22;1797;51.844;7.684;2023-04-01T07:45:14;10.00;99.90
3566;DHT22;1797;51.844;7.684;2023-04-01T07:55:14;10.00;99.90
3566;DHT22;1797;51.844;7.684;2023-04-01T08:00:55;10.10;99.90
3566;DHT22;1797;51.844;7.684;2023-04-01T08:06:37;10.10;99.90
3566;DHT22;1797;51.844;7.684;2023-04-01T08:17:07;10.20;99.90
3566;DHT22;1797;51.844;7.684;2023-04-01T08:19:58;10.20;99.90
3566;DHT22;1797;51.844;7.684;2023-04-01T08:22:39;10.20;99.90
3566;DHT22;1797;51.844;7.684;2023-04-01T08:25:15;10.20;99.90
3566;DHT22;1797;51.844;7.684;2023-04-01T08:27:48;10.20;99.90
3566;DHT22;1797;51.844;7.684;2023-04-01T08:30:23;10.20;99.90
3566;DHT22;1797;51.844;7.684;2023-04-01T08:33:31;10.20;99.90
3566;DHT22;1797;51.844;7.684;2023-04-01T08:36:09;10.40;99.90
3566;DHT22;1797;51.844;7.684;2023-04-01T08:52:34;10.30;99.90
3566;DHT22;1797;51.844;7.684;2023-04-01T08:58:01;10.30;99.90
3566;DHT22;1797;51.844;7.684;2023-04-01T09:00:46;10.30;99.90
3566;DHT22;1797;51.844;7.684;2023-04-01T09:06:21;10.40;99.90
3566;DHT22;1797;51.844;7.684;2023-04-01T09:22:50;10.70;99.90
3566;DHT22;1797;51.844;7.684;2023-04-01T09:28:28;10.80;99.90
3566;DHT22;1797;51.844;7.684;2023-04-01T09:31:28;10.80;99.90
3566;DHT22;1797;51.844;7.684;2023-04-01T09:37:38;10.80;99.90
3566;DHT22;1797;51.844;7.684;2023-04-01T09:40:45;10.80;99.90
3566;DHT22;1797;51.844;7.684;2023-04-01T09:43:24;10.90;99.90
3566;DHT22;1797;51.844;7.684;2023-04-01T09:46:11;10.90;99.90
3566;DHT22;1797;51.844;7.684;2023-04-01T09:54:26;10.90;99.90
3566;DHT22;1797;51.844;7.684;2023-04-01T10:07:45;10.90;99.90
3566;DHT22;1797;51.844;7.684;2023-04-01T10:19:27;11.10;99.90
3566;DHT22;1797;51.844;7.684;2023-04-01T10:31:08;11.20;99.90
3566;DHT22;1797;51.844;7.684;2023-04-01T10:39:20;11.10;99.90
3566;DHT22;1797;51.844;7.684;2023-04-01T10:56:59;11.30;99.90
3566;DHT22;1797;51.844;7.684;2023-04-01T11:21:46;11.40;99.90
3566;DHT22;1797;51.844;7.684;2023-04-01T11:37:34;11.70;99.90
3566;DHT22;1797;51.844;7.684;2023-04-01T11:42:43;11.80;99.90
3566;DHT22;1797;51.844;7.684;2023-04-01T11:47:58;12.10;99.90
3566;DHT22;1797;51.844;7.684;2023-04-01T11:56:02;12.00;99.90
3566;DHT22;1797;51.844;7.684;2023-04-01T12:04:36;12.30;99.90
3566;DHT22;1797;51.844;7.684;2023-04-01T12:10:33;12.50;99.90
3566;DHT22;1797;51.844;7.684;2023-04-01T12:15:55;12.70;99.90
3566;DHT22;1797;51.844;7.684;2023-04-01T12:18:42;12.80;99.90
3566;DHT22;1797;51.844;7.684;2023-04-01T12:32:23;13.20;99.90
3566;DHT22;1797;51.844;7.684;2023-04-01T12:34:56;13.40;99.90
3566;DHT22;1797;51.844;7.684;2023-04-01T12:38:01;13.30;99.90
3566;DHT22;1797;51.844;7.684;2023-04-01T12:41:09;13.20;99.90
3566;DHT22;1797;51.844;7.684;2023-04-01T12:51:58;13.00;99.90
3566;DHT22;1797;51.844;7.684;2023-04-01T12:57:12;13.00;99.90
3566;DHT22;1797;51.844;7.684;2023-04-01T13:13:45;12.50;99.90
3566;DHT22;1797;51.844;7.684;2023-04-01T13:16:06;12.60;99.90
3566;DHT22;1797;51.844;7.684;2023-04-01T13:18:45;12.60;99.90
3566;DHT22;1797;51.844;7.684;2023-04-01T13:29:32;12.80;99.90
3566;DHT22;1797;51.844;7.684;2023-04-01T13:32:18;12.90;99.90
3566;DHT22;1797;51.844;7.684;2023-04-01T13:35:34;13.10;99.90
3566;DHT22;1797;51.844;7.684;2023-04-01T13:40:43;13.50;99.90
3566;DHT22;1797;51.844;7.684;2023-04-01T13:43:28;13.70;99.90
3566;DHT22;1797;51.844;7.684;2023-04-01T13:46:16;13.70;99.90
3566;DHT22;1797;51.844;7.684;2023-04-01T14:08:17;13.40;99.90
3566;DHT22;1797;51.844;7.684;2023-04-01T14:10:59;13.30;99.90
3566;DHT22;1797;51.844;7.684;2023-04-01T14:13:56;13.10;99.90
3566;DHT22;1797;51.844;7.684;2023-04-01T14:27:46;12.50;99.90
3566;DHT22;1797;51.844;7.684;2023-04-01T14:32:56;12.50;99.90
3566;DHT22;1797;51.844;7.684;2023-04-01T14:35:46;12.50;99.90
3566;DHT22;1797;51.844;7.684;2023-04-01T14:41:19;12.50;99.90
3566;DHT22;1797;51.844;7.684;2023-04-01T14:46:58;12.50;99.90
3566;DHT22;1797;51.844;7.684;2023-04-01T14:49:42;12.50;99.90
3566;DHT22;1797;51.844;7.684;2023-04-01T14:54:49;12.60;99.90
3566;DHT22;1797;51.844;7.684;2023-04-01T14:57:24;12.50;99.90
3566;DHT22;1797;51.844;7.684;2023-04-01T15:00:00;12.50;99.90
3566;DHT22;1797;51.844;7.684;2023-04-01T15:03:02;12.50;99.90
3566;DHT22;1797;51.844;7.684;2023-04-01T15:08:09;12.30;99.90
3566;DHT22;1797;51.844;7.684;2023-04-01T15:24:22;12.20;99.90
3566;DHT22;1797;51.844;7.684;2023-04-01T15:30:28;12.00;99.90
3566;DHT22;1797;51.844;7.684;2023-04-01T15:33:02;12.00;99.90
3566;DHT22;1797;51.844;7.684;2023-04-01T15:35:34;12.00;99.90
3566;DHT22;1797;51.844;7.684;2023-04-01T15:41:02;11.90;99.90
3566;DHT22;1797;51.844;7.684;2023-04-01T15:43:48;11.90;99.90
3566;DHT22;1797;51.844;7.684;2023-04-01T15:46:48;11.90;99.90
3566;DHT22;1797;51.844;7.684;2023-04-01T15:54:38;11.90;99.90
3566;DHT22;1797;51.844;7.684;2023-04-01T16:02:34;11.90;99.90
3566;DHT22;1797;51.844;7.684;2023-04-01T16:07:46;12.00;99.90
3566;DHT22;1797;51.844;7.684;2023-04-01T16:10:37;12.00;99.90
3566;DHT22;1797;51.844;7.684;2023-04-01T16:16:07;11.80;99.90
3566;DHT22;1797;51.844;7.684;2023-04-01T16:24:48;11.80;99.90
3566;DHT22;1797;51.844;7.684;2023-04-01T16:35:52;11.90;99.90
3566;DHT22;1797;51.844;7.684;2023-04-01T16:38:24;11.80;99.90
3566;DHT22;1797;51.844;7.684;2023-04-01T16:41:18;11.80;99.90
3566;DHT22;1797;51.844;7.684;2023-04-01T16:43:48;11.80;99.90
3566;DHT22;1797;51.844;7.684;2023-04-01T16:49:25;11.50;99.90
3566;DHT22;1797;51.844;7.684;2023-04-01T16:55:16;11.30;99.90
3566;DHT22;1797;51.844;7.684;2023-04-01T16:57:52;11.30;99.90
3566;DHT22;1797;51.844;7.684;2023-04-01T17:00:51;11.30;99.90
3566;DHT22;1797;51.844;7.684;2023-04-01T17:03:46;11.20;99.90
3566;DHT22;1797;51.844;7.684;2023-04-01T17:09:44;11.20;99.90
3566;DHT22;1797;51.844;7.684;2023-04-01T17:20:08;11.10;99.90
3566;DHT22;1797;51.844;7.684;2023-04-01T17:22:53;11.10;99.90
3566;DHT22;1797;51.844;7.684;2023-04-01T17:31:09;11.00;99.90
3566;DHT22;1797;51.844;7.684;2023-04-01T17:42:46;10.90;99.90
3566;DHT22;1797;51.844;7.684;2023-04-01T17:45:53;10.90;99.90
3566;DHT22;1797;51.844;7.684;2023-04-01T17:53:52;10.70;99.90
3566;DHT22;1797;51.844;7.684;2023-04-01T18:11:05;10.30;99.90
3566;DHT22;1797;51.844;7.684;2023-04-01T18:16:26;10.20;99.90
3566;DHT22;1797;51.844;7.684;2023-04-01T18:22:06;10.10;99.90
3566;DHT22;1797;51.844;7.684;2023-04-01T18:24:45;10.00;99.90
3566;DHT22;1797;51.844;7.684;2023-04-01T18:27:29;10.00;99.90
3566;DHT22;1797;51.844;7.684;2023-04-01T18:30:37;9.90;99.90
3566;DHT22;1797;51.844;7.684;2023-04-01T18:38:34;9.80;99.90
3566;DHT22;1797;51.844;7.684;2023-04-01T18:46:34;9.60;99.90
3566;DHT22;1797;51.844;7.684;2023-04-01T18:51:51;9.50;99.90
3566;DHT22;1797;51.844;7.684;2023-04-01T18:54:30;9.50;99.90
3566;DHT22;1797;51.844;7.684;2023-04-01T18:57:04;9.50;99.90
3566;DHT22;1797;51.844;7.684;2023-04-01T18:59:47;9.40;99.90
3566;DHT22;1797;51.844;7.684;2023-04-01T19:02:40;9.40;99.90
3566;DHT22;1797;51.844;7.684;2023-04-01T19:05:18;9.40;99.90
3566;DHT22;1797;51.844;7.684;2023-04-01T19:07:55;9.30;99.90
3566;DHT22;1797;51.844;7.684;2023-04-01T19:10:23;9.30;99.90
3566;DHT22;1797;51.844;7.684;2023-04-01T19:15:30;9.30;99.90
3566;DHT22;1797;51.844;7.684;2023-04-01T19:18:39;9.30;99.90
3566;DHT22;1797;51.844;7.684;2023-04-01T19:24:03;9.20;99.90
3566;DHT22;1797;51.844;7.684;2023-04-01T19:35:02;9.10;99.90
3566;DHT22;1797;51.844;7.684;2023-04-01T19:37:33;9.00;99.90
3566;DHT22;1797;51.844;7.684;2023-04-01T19:40:14;9.00;99.90
3566;DHT22;1797;51.844;7.684;2023-04-01T19:47:56;8.80;99.90
3566;DHT22;1797;51.844;7.684;2023-04-01T19:58:41;8.70;99.90
3566;DHT22;1797;51.844;7.684;2023-04-01T20:01:24;8.60;99.90
3566;DHT22;1797;51.844;7.684;2023-04-01T20:03:55;8.50;99.90
3566;DHT22;1797;51.844;7.684;2023-04-01T20:09:24;8.50;99.90
3566;DHT22;1797;51.844;7.684;2023-04-01T20:14:45;8.40;99.90
3566;DHT22;1797;51.844;7.684;2023-04-01T20:17:21;8.30;99.90
3566;DHT22;1797;51.844;7.684;2023-04-01T20:20:00;8.20;99.90
3566;DHT22;1797;51.844;7.684;2023-04-01T20:25:17;8.10;99.90
3566;DHT22;1797;51.844;7.684;2023-04-01T20:27:49;8.10;99.90
3566;DHT22;1797;51.844;7.684;2023-04-01T20:38:58;8.00;99.90
3566;DHT22;1797;51.844;7.684;2023-04-01T20:49:33;7.90;99.90
3566;DHT22;1797;51.844;7.684;2023-04-01T21:00:28;7.80;99.90
3566;DHT22;1797;51.844;7.684;2023-04-01T21:14:33;7.70;99.90
3566;DHT22;1797;51.844;7.684;2023-04-01T21:31:15;7.50;99.90
3566;DHT22;1797;51.844;7.684;2023-04-01T21:39:39;7.40;99.90
3566;DHT22;1797;51.844;7.684;2023-04-01T21:42:36;7.40;99.90
3566;DHT22;1797;51.844;7.684;2023-04-01T21:50:43;7.30;99.90
3566;DHT22;1797;51.844;7.684;2023-04-01T21:59:26;7.20;99.90
3566;DHT22;1797;51.844;7.684;2023-04-01T22:07:22;7.10;99.90
3566;DHT22;1797;51.844;7.684;2023-04-01T22:12:36;7.20;99.90
3566;DHT22;1797;51.844;7.684;2023-04-01T22:18:19;7.10;99.90
3566;DHT22;1797;51.844;7.684;2023-04-01T22:23:53;7.10;99.90
3566;DHT22;1797;51.844;7.684;2023-04-01T22:29:16;7.00;99.90
3566;DHT22;1797;51.844;7.684;2023-04-01T22:32:08;6.90;99.90
3566;DHT22;1797;51.844;7.684;2023-04-01T22:35:02;6.80;99.90
3566;DHT22;1797;51.844;7.684;2023-04-01T22:40:15;6.80;99.90
3566;DHT22;1797;51.844;7.684;2023-04-01T22:42:51;6.80;99.90
3566;DHT22;1797;51.844;7.684;2023-04-01T22:48:16;6.80;99.90
3566;DHT22;1797;51.844;7.684;2023-04-01T22:50:47;6.80;99.90
3566;DHT22;1797;51.844;7.684;2023-04-01T22:55:57;6.80;99.90
3566;DHT22;1797;51.844;7.684;2023-04-01T22:58:34;6.80;99.90
3566;DHT22;1797;51.844;7.684;2023-04-01T23:01:12;6.80;99.90
3566;DHT22;1797;51.844;7.684;2023-04-01T23:03:41;6.70;99.90
3566;DHT22;1797;51.844;7.684;2023-04-01T23:06:17;6.70;99.90
3566;DHT22;1797;51.844;7.684;2023-04-01T23:11:33;6.70;99.90
3566;DHT22;1797;51.844;7.684;2023-04-01T23:16:41;6.60;99.90
3566;DHT22;1797;51.844;7.684;2023-04-01T23:19:18;6.60;99.90
3566;DHT22;1797;51.844;7.684;2023-04-01T23:24:45;6.40;99.90
3566;DHT22;1797;51.844;7.684;2023-04-01T23:29:39;6.40;99.90
3566;DHT22;1797;51.844;7.684;2023-04-01T23:32:17;6.40;99.90
3566;DHT22;1797;51.844;7.684;2023-04-01T23:34:48;6.30;99.90
3566;DHT22;1797;51.844;7.684;2023-04-01T23:37:15;6.30;99.90
3566;DHT22;1797;51.844;7.684;2023-04-01T23:39:57;6.20;99.90
3566;DHT22;1797;51.844;7.684;2023-04-01T23:45:03;6.20;99.90
3566;DHT22;1797;51.844;7.684;2023-04-01T23:47:39;6.20;99.90
3566;DHT22;1797;51.844;7.684;2023-04-01T23:50:21;6.10;99.90
3566;DHT22;1797;51.844;7.684;2023-04-01T23:52:53;6.20;99.90
3566;DHT22;1797;51.844;7.684;2023-04-01T23:55:26;6.10;99.90
